createdAt,value
2023-01-19T00:01:34.736Z,38.10
2023-01-19T00:06:36.449Z,38.14
2023-01-19T00:11:38.483Z,37.85
2023-01-19T00:16:40.137Z,37.87
2023-01-19T00:21:41.765Z,37.95
2023-01-19T00:26:43.438Z,38.08
2023-01-19T00:31:45.246Z,38.05
2023-01-19T00:36:46.972Z,37.95
2023-01-19T00:42:06.959Z,38.24
2023-01-19T00:47:08.615Z,38.22
2023-01-19T00:52:11.008Z,38.02
2023-01-19T00:57:12.827Z,38.34
2023-01-19T01:02:14.739Z,38.40
2023-01-19T01:07:16.545Z,38.17
2023-01-19T01:12:18.229Z,38.05
2023-01-19T01:17:24.970Z,38.22
2023-01-19T01:22:27.566Z,38.23
2023-01-19T01:27:29.250Z,38.40
2023-01-19T01:32:30.948Z,38.27
2023-01-19T01:37:32.707Z,38.43
2023-01-19T01:42:34.946Z,38.13
2023-01-19T01:47:44.443Z,38.41
2023-01-19T01:53:08.621Z,38.42
2023-01-19T01:58:11.609Z,38.26
2023-01-19T02:03:13.319Z,38.39
2023-01-19T02:08:38.873Z,38.16
2023-01-19T02:13:45.271Z,38.43
2023-01-19T02:18:48.197Z,38.36
2023-01-19T02:23:52.668Z,38.33
2023-01-19T02:29:02.572Z,38.41
2023-01-19T02:34:06.328Z,38.41
2023-01-19T02:39:09.837Z,38.46
2023-01-19T02:44:13.654Z,38.49
2023-01-19T02:49:15.492Z,38.29
2023-01-19T02:54:36.461Z,38.30
2023-01-19T02:59:56.204Z,38.51
2023-01-19T03:05:26.725Z,38.39
2023-01-19T03:10:32.601Z,38.40
2023-01-19T03:15:46.855Z,38.25
2023-01-19T03:20:53.708Z,38.43
2023-01-19T03:25:58.011Z,38.55
2023-01-19T03:31:05.654Z,38.53
2023-01-19T03:36:14.471Z,38.31
2023-01-19T03:41:19.735Z,38.63
2023-01-19T03:46:23.837Z,38.48
2023-01-19T03:51:26.234Z,38.28
2023-01-19T03:56:27.909Z,38.60
2023-01-19T04:01:29.666Z,38.68
2023-01-19T04:06:32.225Z,38.54
2023-01-19T04:11:34.302Z,38.29
2023-01-19T04:16:36.018Z,38.46
2023-01-19T04:21:37.681Z,38.42
2023-01-19T04:26:39.341Z,38.54
2023-01-19T04:31:41.301Z,38.64
2023-01-19T04:36:43.051Z,38.48
2023-01-19T04:41:44.779Z,38.80
2023-01-19T04:46:46.591Z,38.38
2023-01-19T04:51:48.543Z,38.56
2023-01-19T04:56:50.283Z,38.48
2023-01-19T05:01:52.207Z,38.58
2023-01-19T05:06:54.463Z,38.50
2023-01-19T05:11:56.261Z,38.58
2023-01-19T05:16:58.044Z,38.56
2023-01-19T05:21:59.729Z,38.61
2023-01-19T05:27:02.024Z,38.59
2023-01-19T05:32:03.972Z,38.66
2023-01-19T05:37:05.809Z,38.84
2023-01-19T05:42:07.543Z,38.78
2023-01-19T05:47:09.187Z,38.76
2023-01-19T05:52:10.884Z,38.86
2023-01-19T05:57:12.783Z,38.70
2023-01-19T06:02:14.526Z,38.59
2023-01-19T06:07:16.521Z,38.68
2023-01-19T06:12:18.188Z,38.75
2023-01-19T06:17:20.519Z,38.92
2023-01-19T06:22:23.256Z,38.72
2023-01-19T06:27:24.919Z,38.85
2023-01-19T06:32:26.574Z,39.01
2023-01-19T06:37:30.571Z,38.85
2023-01-19T06:42:32.625Z,38.90
2023-01-19T06:47:34.585Z,38.99
2023-01-19T06:52:42.688Z,39.12
2023-01-19T06:57:44.723Z,39.07
2023-01-19T07:02:46.423Z,39.13
2023-01-19T07:07:57.765Z,39.13
2023-01-19T07:12:59.880Z,38.92
2023-01-19T07:18:05.724Z,38.96
2023-01-19T07:23:07.411Z,39.15
2023-01-19T07:28:09.422Z,39.10
2023-01-19T07:33:11.179Z,39.01
2023-01-19T07:38:12.822Z,38.75
2023-01-19T07:43:15.594Z,38.90
2023-01-19T07:48:17.300Z,39.01
2023-01-19T07:53:19.334Z,38.93
2023-01-19T07:58:20.975Z,38.85
2023-01-19T08:03:22.895Z,38.46
2023-01-19T08:08:24.576Z,38.73
2023-01-19T08:13:26.572Z,38.93
2023-01-19T08:18:28.249Z,38.79
2023-01-19T08:23:29.940Z,39.05
2023-01-19T08:28:31.613Z,38.91
2023-01-19T08:33:33.287Z,38.42
2023-01-19T08:38:35.028Z,38.51
2023-01-19T08:43:38.118Z,38.13
2023-01-19T08:48:40.165Z,38.23
2023-01-19T08:53:42.980Z,38.32
2023-01-19T08:58:49.389Z,38.54
2023-01-19T09:03:58.289Z,38.40
2023-01-19T09:09:00.230Z,39.03
2023-01-19T09:14:02.451Z,38.54
2023-01-19T09:19:04.663Z,38.84
2023-01-19T09:24:06.678Z,38.71
2023-01-19T09:29:08.466Z,38.56
2023-01-19T09:34:11.137Z,38.58
2023-01-19T09:39:12.930Z,38.37
2023-01-19T09:44:24.403Z,38.24
2023-01-19T09:49:32.899Z,38.46
2023-01-19T09:54:53.160Z,38.80
2023-01-19T09:59:59.857Z,38.65
2023-01-19T10:05:15.788Z,38.66
2023-01-19T10:10:21.970Z,38.71
2023-01-19T10:15:54.908Z,38.78
2023-01-19T10:21:05.923Z,38.92
2023-01-19T10:26:22.186Z,38.51
2023-01-19T10:31:24.939Z,38.94
2023-01-19T10:36:36.308Z,38.59
2023-01-19T10:41:47.093Z,38.81
2023-01-19T10:46:50.573Z,38.89
2023-01-19T10:51:53.052Z,38.57
2023-01-19T10:56:58.726Z,38.80
2023-01-19T11:02:10.694Z,38.84
2023-01-19T11:07:20.124Z,38.65
2023-01-19T11:12:24.126Z,38.89
2023-01-19T11:17:26.541Z,39.01
2023-01-19T11:22:32.608Z,38.99
2023-01-19T11:27:37.533Z,38.70
2023-01-19T11:32:39.526Z,38.92
2023-01-19T11:37:43.005Z,39.11
2023-01-19T11:42:45.044Z,38.87
2023-01-19T11:47:51.903Z,38.97
2023-01-19T11:53:06.198Z,38.96
2023-01-19T11:58:15.587Z,38.89
2023-01-19T12:03:33.099Z,38.53
2023-01-19T12:08:39.964Z,38.38
2023-01-19T12:13:44.234Z,38.72
2023-01-19T12:18:51.243Z,38.54
2023-01-19T12:24:18.803Z,38.64
2023-01-19T12:29:24.121Z,38.60
2023-01-19T12:34:26.208Z,38.66
2023-01-19T12:39:28.021Z,38.32
2023-01-19T12:44:34.286Z,38.44
2023-01-19T12:49:39.083Z,38.27
2023-01-19T12:55:03.055Z,38.55
2023-01-19T13:00:29.057Z,38.20
2023-01-19T13:05:32.681Z,38.10
2023-01-19T13:10:55.618Z,38.44
2023-01-19T13:16:27.816Z,38.52
2023-01-19T13:21:46.803Z,38.19
2023-01-19T13:27:00.267Z,38.31
2023-01-19T13:32:05.851Z,38.09
2023-01-19T13:37:18.556Z,38.40
2023-01-19T13:42:34.360Z,38.39
2023-01-19T13:47:48.315Z,38.15
2023-01-19T13:52:54.223Z,38.37
2023-01-19T13:57:56.719Z,38.59
2023-01-19T14:03:01.082Z,39.74
2023-01-19T14:08:13.609Z,39.75
2023-01-19T14:13:16.753Z,39.95
2023-01-19T14:18:26.195Z,39.97
2023-01-19T14:23:47.857Z,39.92
2023-01-19T14:28:49.805Z,40.15
2023-01-19T14:33:55.678Z,40.26
2023-01-19T14:38:59.828Z,40.28
2023-01-19T14:44:03.339Z,40.33
2023-01-19T14:49:06.805Z,41.68
2023-01-19T14:54:18.677Z,40.39
2023-01-19T14:59:20.422Z,40.08
2023-01-19T15:04:23.308Z,39.90
2023-01-19T15:09:25.596Z,39.60
2023-01-19T15:14:28.147Z,39.50
2023-01-19T15:19:30.081Z,39.66
2023-01-19T15:24:31.836Z,39.33
2023-01-19T15:29:34.444Z,39.20
2023-01-19T15:34:36.122Z,39.23
2023-01-19T15:39:37.954Z,38.88
2023-01-19T15:44:40.014Z,38.72
2023-01-19T15:49:41.900Z,40.25
2023-01-19T15:54:43.656Z,40.80
2023-01-19T15:59:45.353Z,40.92
2023-01-19T16:04:50.150Z,40.40
2023-01-19T16:09:52.087Z,40.25
2023-01-19T16:14:53.781Z,40.12
2023-01-19T16:19:55.433Z,39.94
2023-01-19T16:24:57.446Z,39.94
2023-01-19T16:30:04.807Z,40.76
2023-01-19T16:35:07.014Z,39.93
2023-01-19T16:40:09.715Z,40.53
2023-01-19T16:45:11.542Z,41.28
2023-01-19T16:50:13.474Z,41.50
2023-01-19T16:55:15.201Z,42.15
2023-01-19T17:00:17.261Z,42.10
2023-01-19T17:05:18.956Z,42.23
2023-01-19T17:10:20.796Z,41.35
2023-01-19T17:15:22.638Z,40.71
2023-01-19T17:20:24.374Z,38.86
2023-01-19T17:25:26.078Z,38.74
2023-01-19T17:30:27.857Z,38.84
2023-01-19T17:35:29.578Z,39.49
2023-01-19T17:40:31.476Z,40.14
2023-01-19T17:45:36.830Z,40.28
2023-01-19T17:50:38.499Z,40.45
2023-01-19T17:55:40.451Z,40.40
2023-01-19T18:00:42.141Z,40.24
2023-01-19T18:05:43.841Z,40.42
2023-01-19T18:10:56.690Z,40.40
2023-01-19T18:16:03.061Z,39.67
2023-01-19T18:21:08.392Z,39.42
2023-01-19T18:26:15.876Z,39.80
2023-01-19T18:31:19.226Z,40.16
2023-01-19T18:36:21.121Z,40.37
2023-01-19T18:41:22.874Z,40.44
2023-01-19T18:46:25.532Z,39.60
2023-01-19T18:51:28.432Z,39.50
2023-01-19T18:56:30.127Z,39.58
2023-01-19T19:01:35.211Z,39.64
2023-01-19T19:06:36.933Z,39.27
2023-01-19T19:11:38.751Z,39.29
2023-01-19T19:16:40.561Z,39.18
2023-01-19T19:21:43.274Z,39.42
2023-01-19T19:26:45.552Z,39.51
2023-01-19T19:31:47.392Z,40.15
2023-01-19T19:36:49.470Z,40.59
2023-01-19T19:41:51.195Z,39.61
2023-01-19T19:46:53.034Z,39.79
2023-01-19T19:51:54.783Z,41.93
2023-01-19T19:56:56.637Z,42.09
2023-01-19T20:01:58.694Z,42.20
2023-01-19T20:07:00.501Z,41.51
2023-01-19T20:12:02.229Z,41.48
2023-01-19T20:17:05.372Z,41.12
2023-01-19T20:22:07.758Z,41.33
2023-01-19T20:27:09.679Z,41.55
2023-01-19T20:32:11.650Z,41.09
2023-01-19T20:37:13.364Z,40.81
2023-01-19T20:42:16.657Z,41.37
2023-01-19T20:47:18.705Z,40.85
2023-01-19T20:52:21.708Z,40.87
2023-01-19T20:57:23.705Z,42.06
2023-01-19T21:02:28.412Z,42.11
2023-01-19T21:07:30.355Z,41.79
2023-01-19T21:12:32.050Z,41.95
2023-01-19T21:17:34.025Z,41.90
2023-01-19T21:22:35.990Z,40.90
2023-01-19T21:27:37.679Z,41.20
2023-01-19T21:32:39.523Z,41.09
2023-01-19T21:37:41.301Z,44.40
2023-01-19T21:42:42.978Z,43.18
2023-01-19T21:47:44.653Z,44.11
2023-01-19T21:52:46.343Z,44.08
2023-01-19T21:57:48.059Z,44.13
2023-01-19T22:03:02.975Z,44.38
2023-01-19T22:08:06.649Z,44.38
2023-01-19T22:13:09.854Z,43.47
2023-01-19T22:18:11.710Z,42.43
2023-01-19T22:23:13.558Z,41.87
2023-01-19T22:28:15.249Z,41.52
2023-01-19T22:33:16.971Z,41.51
2023-01-19T22:38:19.037Z,41.28
2023-01-19T22:43:20.724Z,41.42
2023-01-19T22:48:22.443Z,41.62
2023-01-19T22:53:24.100Z,41.44
2023-01-19T22:58:25.789Z,41.33
2023-01-19T23:03:29.111Z,41.40
2023-01-19T23:08:30.864Z,41.20
2023-01-19T23:13:32.661Z,41.14
2023-01-19T23:18:34.387Z,41.48
2023-01-19T23:23:36.786Z,41.13
2023-01-19T23:28:39.576Z,41.25
2023-01-19T23:33:41.918Z,41.30
2023-01-19T23:38:49.035Z,41.21
2023-01-19T23:43:51.445Z,40.86
2023-01-19T23:48:53.417Z,41.13
2023-01-19T23:53:56.215Z,41.03
2023-01-19T23:59:00.513Z,41.09
